sensor_id;sensor_type;location;lat;lon;timestamp;temperature;humidity
33841;DHT22;20142;28.494;-16.312;2022-12-01T00:00:31;17.50;79.10
33841;DHT22;20142;28.494;-16.312;2022-12-01T00:05:33;17.60;79.00
33841;DHT22;20142;28.494;-16.312;2022-12-01T00:10:35;17.60;78.80
33841;DHT22;20142;28.494;-16.312;2022-12-01T00:15:37;17.60;78.40
33841;DHT22;20142;28.494;-16.312;2022-12-01T00:20:39;17.60;78.50
33841;DHT22;20142;28.494;-16.312;2022-12-01T00:25:40;17.60;78.40
33841;DHT22;20142;28.494;-16.312;2022-12-01T00:30:42;17.60;78.20
33841;DHT22;20142;28.494;-16.312;2022-12-01T00:35:44;17.50;77.60
33841;DHT22;20142;28.494;-16.312;2022-12-01T00:40:45;17.60;77.90
33841;DHT22;20142;28.494;-16.312;2022-12-01T00:45:47;17.60;77.20
33841;DHT22;20142;28.494;-16.312;2022-12-01T00:50:53;17.60;77.10
33841;DHT22;20142;28.494;-16.312;2022-12-01T00:55:55;17.60;77.00
33841;DHT22;20142;28.494;-16.312;2022-12-01T01:00:58;17.60;76.30
33841;DHT22;20142;28.494;-16.312;2022-12-01T01:06:06;17.60;76.20
33841;DHT22;20142;28.494;-16.312;2022-12-01T01:11:09;17.60;76.20
33841;DHT22;20142;28.494;-16.312;2022-12-01T01:16:19;17.70;75.60
33841;DHT22;20142;28.494;-16.312;2022-12-01T01:21:21;17.70;75.80
33841;DHT22;20142;28.494;-16.312;2022-12-01T01:26:26;17.70;75.70
33841;DHT22;20142;28.494;-16.312;2022-12-01T01:31:29;17.70;75.50
33841;DHT22;20142;28.494;-16.312;2022-12-01T01:36:31;17.60;75.40
33841;DHT22;20142;28.494;-16.312;2022-12-01T01:41:33;17.60;75.20
33841;DHT22;20142;28.494;-16.312;2022-12-01T01:46:34;17.60;75.40
33841;DHT22;20142;28.494;-16.312;2022-12-01T01:51:42;17.60;75.70
33841;DHT22;20142;28.494;-16.312;2022-12-01T01:56:47;17.50;75.40
33841;DHT22;20142;28.494;-16.312;2022-12-01T02:01:55;17.50;75.70
33841;DHT22;20142;28.494;-16.312;2022-12-01T02:07:11;17.50;75.40
33841;DHT22;20142;28.494;-16.312;2022-12-01T02:17:56;17.40;75.40
33841;DHT22;20142;28.494;-16.312;2022-12-01T02:34:41;17.40;74.90
33841;DHT22;20142;28.494;-16.312;2022-12-01T02:50:44;17.30;76.20
33841;DHT22;20142;28.494;-16.312;2022-12-01T02:55:52;17.30;76.70
33841;DHT22;20142;28.494;-16.312;2022-12-01T03:12:22;17.20;77.40
33841;DHT22;20142;28.494;-16.312;2022-12-01T03:17:32;17.20;77.50
33841;DHT22;20142;28.494;-16.312;2022-12-01T03:22:47;17.20;77.60
33841;DHT22;20142;28.494;-16.312;2022-12-01T03:27:52;17.20;77.60
33841;DHT22;20142;28.494;-16.312;2022-12-01T03:33:00;17.30;77.50
33841;DHT22;20142;28.494;-16.312;2022-12-01T03:38:12;17.20;77.40
33841;DHT22;20142;28.494;-16.312;2022-12-01T03:43:23;17.20;77.10
33841;DHT22;20142;28.494;-16.312;2022-12-01T03:48:28;17.10;76.90
33841;DHT22;20142;28.494;-16.312;2022-12-01T03:53:55;17.10;76.30
33841;DHT22;20142;28.494;-16.312;2022-12-01T03:59:05;17.00;76.40
33841;DHT22;20142;28.494;-16.312;2022-12-01T04:04:10;16.90;76.60
33841;DHT22;20142;28.494;-16.312;2022-12-01T04:09:13;16.90;76.30
33841;DHT22;20142;28.494;-16.312;2022-12-01T04:14:15;16.90;76.40
33841;DHT22;20142;28.494;-16.312;2022-12-01T04:19:16;16.80;75.80
33841;DHT22;20142;28.494;-16.312;2022-12-01T04:24:18;16.80;75.50
33841;DHT22;20142;28.494;-16.312;2022-12-01T04:29:20;16.80;75.30
33841;DHT22;20142;28.494;-16.312;2022-12-01T04:34:21;16.80;74.90
33841;DHT22;20142;28.494;-16.312;2022-12-01T04:39:23;16.80;74.90
33841;DHT22;20142;28.494;-16.312;2022-12-01T04:44:25;16.70;74.50
33841;DHT22;20142;28.494;-16.312;2022-12-01T04:49:27;16.70;74.30
33841;DHT22;20142;28.494;-16.312;2022-12-01T04:54:28;16.60;74.20
33841;DHT22;20142;28.494;-16.312;2022-12-01T04:59:30;16.50;74.40
33841;DHT22;20142;28.494;-16.312;2022-12-01T05:04:32;16.50;75.30
33841;DHT22;20142;28.494;-16.312;2022-12-01T05:09:34;16.50;75.20
33841;DHT22;20142;28.494;-16.312;2022-12-01T05:14:36;16.40;75.50
33841;DHT22;20142;28.494;-16.312;2022-12-01T05:19:37;16.40;75.90
33841;DHT22;20142;28.494;-16.312;2022-12-01T05:24:57;16.40;76.30
33841;DHT22;20142;28.494;-16.312;2022-12-01T05:29:59;16.30;76.60
33841;DHT22;20142;28.494;-16.312;2022-12-01T05:35:00;16.30;76.90
33841;DHT22;20142;28.494;-16.312;2022-12-01T05:40:02;16.20;77.00
33841;DHT22;20142;28.494;-16.312;2022-12-01T05:45:05;16.20;77.20
33841;DHT22;20142;28.494;-16.312;2022-12-01T05:50:07;16.20;77.10
33841;DHT22;20142;28.494;-16.312;2022-12-01T05:55:09;16.10;77.10
33841;DHT22;20142;28.494;-16.312;2022-12-01T06:00:12;16.10;76.90
33841;DHT22;20142;28.494;-16.312;2022-12-01T06:05:14;16.10;76.80
33841;DHT22;20142;28.494;-16.312;2022-12-01T06:10:16;16.10;76.80
33841;DHT22;20142;28.494;-16.312;2022-12-01T06:15:18;16.10;76.70
33841;DHT22;20142;28.494;-16.312;2022-12-01T06:20:20;16.10;76.40
33841;DHT22;20142;28.494;-16.312;2022-12-01T06:25:21;16.00;76.40
33841;DHT22;20142;28.494;-16.312;2022-12-01T06:30:24;16.00;76.50
33841;DHT22;20142;28.494;-16.312;2022-12-01T06:35:26;15.90;76.60
